createdAt,value
2018-05-31T00:01:20.105Z,100926.86
2018-05-31T00:03:48.636Z,100920.62
2018-05-31T00:06:22.943Z,100917.78
2018-05-31T00:08:51.769Z,100919.19
2018-05-31T00:11:20.440Z,100922.14
2018-05-31T00:13:50.731Z,100919.61
2018-05-31T00:16:19.854Z,100919.70
2018-05-31T00:18:50.002Z,100915.34
2018-05-31T00:21:18.724Z,100912.12
2018-05-31T00:23:47.919Z,100907.73
2018-05-31T00:26:16.993Z,100907.84
2018-05-31T00:28:45.346Z,100910.59
2018-05-31T00:31:14.455Z,100909.89
2018-05-31T00:33:43.743Z,100913.88
2018-05-31T00:36:13.672Z,100906.86
2018-05-31T00:38:42.394Z,100908.11
2018-05-31T00:41:11.669Z,100904.55
2018-05-31T00:43:40.856Z,100901.26
2018-05-31T00:46:09.478Z,100899.95
2018-05-31T00:48:38.252Z,100902.30
2018-05-31T00:51:06.654Z,100911.77
2018-05-31T00:53:36.261Z,100914.81
2018-05-31T00:56:17.575Z,100914.45
2018-05-31T00:58:46.803Z,100908.70
2018-05-31T01:01:15.168Z,100912.69
2018-05-31T01:03:43.670Z,100912.95
2018-05-31T01:06:12.042Z,100917.93
2018-05-31T01:08:41.679Z,100915.73
2018-05-31T01:11:10.125Z,100916.37
2018-05-31T01:13:38.464Z,100915.94
2018-05-31T01:16:07.634Z,100913.55
2018-05-31T01:18:36.017Z,100915.22
2018-05-31T01:21:04.414Z,100918.36
2018-05-31T01:23:34.782Z,100918.09
2018-05-31T01:26:04.946Z,100922.70
2018-05-31T01:28:33.332Z,100927.64
2018-05-31T01:31:01.743Z,100920.51
2018-05-31T01:33:30.875Z,100920.28
2018-05-31T01:35:59.288Z,100923.78
2018-05-31T01:38:35.501Z,100925.64
2018-05-31T01:41:03.862Z,100924.78
2018-05-31T01:43:32.993Z,100924.41
2018-05-31T01:46:01.432Z,100921.77
2018-05-31T01:48:30.865Z,100917.19
2018-05-31T01:51:00.160Z,100914.94
2018-05-31T01:53:29.361Z,100912.55
2018-05-31T01:55:59.358Z,100914.71
2018-05-31T01:58:28.208Z,100919.31
2018-05-31T02:00:57.449Z,100922.35
2018-05-31T02:03:28.824Z,100919.00
2018-05-31T02:05:58.891Z,100922.03
2018-05-31T02:08:28.087Z,100915.52
2018-05-31T02:10:56.471Z,100918.45
2018-05-31T02:13:25.548Z,100915.25
2018-05-31T02:15:55.724Z,100919.39
2018-05-31T02:18:24.935Z,100916.71
2018-05-31T02:20:53.304Z,100915.73
2018-05-31T02:23:23.294Z,100914.66
2018-05-31T02:25:53.528Z,100913.77
2018-05-31T02:28:22.235Z,100913.17
2018-05-31T02:30:50.975Z,100925.20
2018-05-31T02:33:20.152Z,100916.55
2018-05-31T02:35:48.550Z,100917.20
2018-05-31T02:38:17.984Z,100922.83
2018-05-31T02:40:47.155Z,100925.56
2018-05-31T02:43:16.885Z,100919.73
2018-05-31T02:45:45.508Z,100918.56
2018-05-31T02:48:13.972Z,100921.36
2018-05-31T02:50:42.412Z,100924.43
2018-05-31T02:53:11.476Z,100919.29
2018-05-31T02:55:40.511Z,100916.41
2018-05-31T02:58:11.334Z,100919.38
2018-05-31T03:00:40.542Z,100923.96
2018-05-31T03:03:09.719Z,100919.67
2018-05-31T03:05:38.905Z,100919.13
2018-05-31T03:08:07.414Z,100918.47
2018-05-31T03:10:37.434Z,100915.45
2018-05-31T03:13:06.665Z,100911.23
2018-05-31T03:15:35.356Z,100913.56
2018-05-31T03:18:03.833Z,100920.41
2018-05-31T03:20:32.411Z,100922.44
2018-05-31T03:23:01.501Z,100920.84
2018-05-31T03:25:30.214Z,100918.37
2018-05-31T03:27:59.489Z,100917.59
2018-05-31T03:30:27.861Z,100922.23
2018-05-31T03:32:57.953Z,100920.93
2018-05-31T03:35:26.304Z,100921.49
2018-05-31T03:37:55.568Z,100920.30
2018-05-31T03:40:24.831Z,100922.10
2018-05-31T03:42:54.595Z,100925.44
2018-05-31T03:45:23.668Z,100928.41
2018-05-31T03:47:52.187Z,100917.09
2018-05-31T03:50:20.748Z,100914.16
2018-05-31T03:52:49.124Z,100914.94
2018-05-31T03:55:17.949Z,100910.41
2018-05-31T03:57:46.362Z,100912.84
2018-05-31T04:00:16.473Z,100911.73
2018-05-31T04:02:46.672Z,100922.80
2018-05-31T04:05:17.498Z,100919.04
2018-05-31T04:07:45.935Z,100919.53
2018-05-31T04:10:15.750Z,100919.15
2018-05-31T04:12:44.106Z,100913.63
2018-05-31T04:15:13.242Z,100911.29
2018-05-31T04:17:41.633Z,100914.60
2018-05-31T04:20:11.856Z,100914.28
2018-05-31T04:22:40.277Z,100912.59
2018-05-31T04:25:09.489Z,100909.55
2018-05-31T04:27:38.685Z,100912.44
2018-05-31T04:30:07.902Z,100910.44
2018-05-31T04:32:36.330Z,100910.93
2018-05-31T04:35:05.691Z,100914.93
2018-05-31T04:37:34.199Z,100908.94
2018-05-31T04:40:03.550Z,100910.38
2018-05-31T04:42:32.425Z,100919.83
2018-05-31T04:45:02.374Z,100917.71
2018-05-31T04:47:30.754Z,100914.52
2018-05-31T04:49:59.217Z,100914.01
2018-05-31T04:52:29.178Z,100918.17
2018-05-31T04:54:57.562Z,100919.39
2018-05-31T04:57:27.552Z,100923.85
2018-05-31T04:59:57.698Z,100925.45
2018-05-31T05:02:26.678Z,100928.94
2018-05-31T05:04:55.148Z,100926.59
2018-05-31T05:07:23.565Z,100927.28
2018-05-31T05:09:54.004Z,100928.81
2018-05-31T05:12:23.177Z,100928.81
2018-05-31T05:14:52.012Z,100930.19
2018-05-31T05:17:21.163Z,100936.33
2018-05-31T05:19:50.302Z,100941.91
2018-05-31T05:22:21.000Z,100938.23
2018-05-31T05:24:49.430Z,100945.68
2018-05-31T05:27:18.815Z,100945.28
2018-05-31T05:29:48.962Z,100946.88
2018-05-31T05:32:18.268Z,100944.61
2018-05-31T05:34:46.695Z,100945.89
2018-05-31T05:37:15.892Z,100936.55
2018-05-31T05:39:44.297Z,100931.98
2018-05-31T05:42:15.262Z,100934.29
2018-05-31T05:44:44.488Z,100928.52
2018-05-31T05:47:12.851Z,100930.26
2018-05-31T05:49:41.805Z,100935.93
2018-05-31T05:52:11.923Z,100932.64
2018-05-31T05:54:42.408Z,100929.42
2018-05-31T05:57:10.794Z,100933.11
2018-05-31T05:59:39.821Z,100932.09
2018-05-31T06:02:08.355Z,100929.33
2018-05-31T06:04:36.890Z,100932.44
2018-05-31T06:07:06.063Z,100935.84
2018-05-31T06:09:34.464Z,100936.48
2018-05-31T06:12:04.397Z,100939.29
2018-05-31T06:14:32.844Z,100934.80
2018-05-31T06:17:01.303Z,100933.13
2018-05-31T06:19:30.445Z,100935.95
2018-05-31T06:21:58.974Z,100938.48
2018-05-31T06:24:28.887Z,100941.61
2018-05-31T06:26:57.866Z,100940.80
2018-05-31T06:29:26.735Z,100939.50
2018-05-31T06:31:57.011Z,100934.49
2018-05-31T06:34:25.450Z,100939.97
2018-05-31T06:36:53.785Z,100941.55
2018-05-31T06:39:22.158Z,100937.25
2018-05-31T06:41:51.353Z,100939.09
2018-05-31T06:44:19.705Z,100947.72
2018-05-31T06:46:48.363Z,100946.97
2018-05-31T06:49:16.887Z,100942.66
2018-05-31T06:51:45.765Z,100944.11
2018-05-31T06:54:14.113Z,100943.31
2018-05-31T06:56:44.543Z,100945.63
2018-05-31T06:59:14.625Z,100942.99
2018-05-31T07:01:44.714Z,100941.98
2018-05-31T07:04:13.154Z,100941.61
2018-05-31T07:06:43.229Z,100938.86
2018-05-31T07:09:11.671Z,100944.97
2018-05-31T07:11:40.017Z,100945.72
2018-05-31T07:14:09.812Z,100940.29
2018-05-31T07:16:38.233Z,100941.14
2018-05-31T07:19:06.626Z,100942.53
2018-05-31T07:21:35.075Z,100944.23
2018-05-31T07:24:03.432Z,100943.09
2018-05-31T07:26:32.692Z,100943.17
2018-05-31T07:29:01.812Z,100946.05
2018-05-31T07:31:30.265Z,100945.61
2018-05-31T07:33:59.393Z,100950.90
2018-05-31T07:36:27.771Z,100943.08
2018-05-31T07:38:56.484Z,100945.02
2018-05-31T07:41:27.040Z,100942.31
2018-05-31T07:43:55.434Z,100940.15
2018-05-31T07:46:23.838Z,100941.74
2018-05-31T07:48:52.179Z,100944.08
2018-05-31T07:51:20.592Z,100946.41
2018-05-31T07:53:48.920Z,100940.05
2018-05-31T07:56:18.882Z,100949.80
2018-05-31T07:58:50.478Z,100947.34
2018-05-31T08:01:19.613Z,100948.36
2018-05-31T08:03:47.993Z,100947.91
2018-05-31T08:06:18.081Z,100947.92
2018-05-31T08:08:48.399Z,100955.55
2018-05-31T08:11:18.195Z,100956.48
2018-05-31T08:13:47.317Z,100962.72
2018-05-31T08:16:16.482Z,100963.77
2018-05-31T08:18:45.400Z,100967.84
2018-05-31T08:21:15.203Z,100963.50
2018-05-31T08:23:46.193Z,100958.66
2018-05-31T08:26:16.823Z,100961.38
2018-05-31T08:28:45.164Z,100963.27
2018-05-31T08:31:15.723Z,100958.20
2018-05-31T08:33:44.928Z,100955.13
2018-05-31T08:36:13.953Z,100952.53
2018-05-31T08:38:43.185Z,100950.78
2018-05-31T08:41:13.187Z,100946.97
2018-05-31T08:43:43.381Z,100942.19
2018-05-31T08:46:13.510Z,100946.97
2018-05-31T08:48:43.083Z,100952.19
2018-05-31T08:51:12.234Z,100950.89
2018-05-31T08:53:41.911Z,100950.17
2018-05-31T08:56:11.551Z,100946.44
2018-05-31T08:58:40.454Z,100951.98
2018-05-31T09:01:09.656Z,100947.19
2018-05-31T09:03:37.983Z,100942.98
2018-05-31T09:06:08.561Z,100941.34
2018-05-31T09:08:39.037Z,100941.89
2018-05-31T09:11:07.382Z,100943.27
2018-05-31T09:13:36.936Z,100943.65
2018-05-31T09:16:06.247Z,100941.02
2018-05-31T09:18:36.258Z,100943.36
2018-05-31T09:21:05.282Z,100939.83
2018-05-31T09:23:35.088Z,100938.52
2018-05-31T09:26:05.131Z,100940.69
2018-05-31T09:28:34.193Z,100938.34
2018-05-31T09:31:03.364Z,100936.93
2018-05-31T09:33:31.707Z,100941.14
2018-05-31T09:36:00.420Z,100938.15
2018-05-31T09:38:28.787Z,100940.98
2018-05-31T09:40:58.090Z,100939.48
2018-05-31T09:43:28.688Z,100935.80
2018-05-31T09:45:57.824Z,100944.94
2018-05-31T09:48:27.201Z,100946.25
2018-05-31T09:50:55.599Z,100946.28
2018-05-31T09:53:24.677Z,100944.92
2018-05-31T09:55:54.608Z,100954.50
2018-05-31T09:58:22.961Z,100947.01
2018-05-31T10:00:51.418Z,100948.81
2018-05-31T10:03:22.744Z,100941.08
2018-05-31T10:05:51.880Z,100933.78
2018-05-31T10:08:20.948Z,100937.72
2018-05-31T10:10:50.696Z,100944.85
2018-05-31T10:13:19.061Z,100941.23
2018-05-31T10:15:47.475Z,100938.34
2018-05-31T10:18:16.693Z,100937.94
2018-05-31T10:20:45.766Z,100939.25
2018-05-31T10:23:15.170Z,100932.48
2018-05-31T10:25:43.551Z,100931.38
2018-05-31T10:28:11.939Z,100933.52
2018-05-31T10:30:40.370Z,100933.09
2018-05-31T10:33:09.742Z,100929.08
2018-05-31T10:35:39.404Z,100925.30
2018-05-31T10:38:07.982Z,100923.78
2018-05-31T10:40:37.097Z,100927.70
2018-05-31T10:43:06.082Z,100919.30
2018-05-31T10:45:35.351Z,100917.64
2018-05-31T10:48:04.501Z,100913.15
2018-05-31T10:50:32.982Z,100907.63
2018-05-31T10:53:01.527Z,100906.67
2018-05-31T10:55:29.860Z,100902.17
2018-05-31T10:57:58.499Z,100900.61
2018-05-31T11:00:28.110Z,100905.98
2018-05-31T11:02:57.557Z,100898.52
2018-05-31T11:05:28.466Z,100898.63
2018-05-31T11:07:56.858Z,100900.59
2018-05-31T11:10:25.205Z,100900.81
2018-05-31T11:12:54.588Z,100895.81
2018-05-31T11:15:23.535Z,100898.95
2018-05-31T11:17:52.883Z,100892.22
2018-05-31T11:20:21.850Z,100898.95
2018-05-31T11:22:51.869Z,100885.84
2018-05-31T11:25:20.969Z,100889.72
2018-05-31T11:27:51.547Z,100887.83
2018-05-31T11:30:19.925Z,100881.08
2018-05-31T11:32:49.427Z,100882.69
2018-05-31T11:35:19.111Z,100881.70
2018-05-31T11:37:48.142Z,100881.52
2018-05-31T11:40:18.167Z,100876.60
2018-05-31T11:42:49.826Z,100875.50
2018-05-31T11:45:19.715Z,100871.05
2018-05-31T11:47:48.964Z,100865.73
2018-05-31T11:50:18.135Z,100863.71
2018-05-31T11:52:46.461Z,100854.75
2018-05-31T11:55:14.968Z,100852.96
2018-05-31T11:57:44.203Z,100857.19
2018-05-31T12:00:13.284Z,100856.02
2018-05-31T12:02:42.863Z,100861.17
2018-05-31T12:05:13.845Z,100862.72
2018-05-31T12:07:42.973Z,100863.36
2018-05-31T12:10:12.816Z,100859.03
2018-05-31T12:12:42.071Z,100861.31
2018-05-31T12:15:11.190Z,100869.62
2018-05-31T12:17:41.427Z,100873.70
2018-05-31T12:20:10.508Z,100881.75
2018-05-31T12:22:38.852Z,100879.88
2018-05-31T12:25:07.246Z,100877.27
2018-05-31T12:27:35.621Z,100874.73
2018-05-31T12:30:04.739Z,100872.34
2018-05-31T12:32:33.885Z,100872.47
2018-05-31T12:35:02.383Z,100861.89
2018-05-31T12:37:31.780Z,100861.28
2018-05-31T12:40:01.003Z,100853.73
2018-05-31T12:42:30.126Z,100850.97
2018-05-31T12:44:58.537Z,100845.38
2018-05-31T12:47:26.914Z,100842.48
2018-05-31T12:49:55.280Z,100840.14
2018-05-31T12:52:23.623Z,100849.61
2018-05-31T12:54:52.039Z,100849.24
2018-05-31T12:57:21.816Z,100846.16
2018-05-31T12:59:51.191Z,100848.59
2018-05-31T13:02:19.545Z,100846.37
2018-05-31T13:04:47.928Z,100841.59
2018-05-31T13:07:16.295Z,100846.27
2018-05-31T13:09:44.669Z,100847.58
2018-05-31T13:12:14.641Z,100850.71
2018-05-31T13:14:43.022Z,100845.83
2018-05-31T13:17:11.389Z,100841.27
2018-05-31T13:19:40.573Z,100835.59
2018-05-31T13:22:08.926Z,100838.67
2018-05-31T13:24:37.438Z,100836.03
2018-05-31T13:27:05.734Z,100838.61
2018-05-31T13:29:34.873Z,100836.44
2018-05-31T13:32:04.065Z,100835.86
2018-05-31T13:34:32.537Z,100841.22
2018-05-31T13:37:01.042Z,100835.97
2018-05-31T13:39:29.408Z,100839.20
2018-05-31T13:41:57.865Z,100835.39
2018-05-31T13:44:26.214Z,100834.75
2018-05-31T13:46:55.372Z,100834.38
2018-05-31T13:49:23.757Z,100833.34
2018-05-31T13:51:53.619Z,100833.98
2018-05-31T13:54:23.734Z,100830.86
2018-05-31T13:56:54.085Z,100829.19
2018-05-31T13:59:22.428Z,100833.02
2018-05-31T14:01:51.594Z,100824.91
2018-05-31T14:04:19.963Z,100824.54
2018-05-31T14:06:48.291Z,100821.21
2018-05-31T14:09:17.441Z,100815.26
2018-05-31T14:11:45.789Z,100821.52
2018-05-31T14:14:14.167Z,100819.91
2018-05-31T14:16:42.584Z,100815.76
2018-05-31T14:19:10.938Z,100809.91
2018-05-31T14:21:39.378Z,100803.45
2018-05-31T14:24:08.836Z,100807.92
2018-05-31T14:26:37.213Z,100810.04
2018-05-31T14:29:05.636Z,100802.76
2018-05-31T14:31:34.783Z,100801.98
2018-05-31T14:34:03.190Z,100795.49
2018-05-31T14:36:31.627Z,100795.77
2018-05-31T14:39:00.271Z,100796.70
2018-05-31T14:41:30.010Z,100797.39
2018-05-31T14:43:59.275Z,100798.38
2018-05-31T14:46:28.441Z,100798.29
2018-05-31T14:48:56.954Z,100798.70
2018-05-31T14:51:26.119Z,100801.62
2018-05-31T14:53:54.576Z,100801.30
2018-05-31T14:56:22.976Z,100796.19
2018-05-31T14:58:51.340Z,100792.86
2018-05-31T15:01:19.685Z,100795.98
2018-05-31T15:03:48.814Z,100793.23
2018-05-31T15:06:17.192Z,100795.92
2018-05-31T15:08:45.845Z,100800.00
2018-05-31T15:11:14.213Z,100797.64
2018-05-31T15:13:43.352Z,100791.88
2018-05-31T15:16:11.731Z,100789.02
2018-05-31T15:18:40.095Z,100791.83
2018-05-31T15:21:09.295Z,100783.59
2018-05-31T15:23:37.682Z,100785.55
2018-05-31T15:26:06.034Z,100787.36
2018-05-31T15:28:34.387Z,100796.05
2018-05-31T15:31:02.782Z,100793.80
2018-05-31T15:33:31.916Z,100797.92
2018-05-31T15:36:00.295Z,100793.05
2018-05-31T15:38:29.502Z,100788.12
2018-05-31T15:40:58.132Z,100786.72
2018-05-31T15:43:27.458Z,100792.59
2018-05-31T15:45:55.823Z,100789.02
2018-05-31T15:48:25.586Z,100790.65
2018-05-31T15:50:53.978Z,100792.54
2018-05-31T15:53:22.383Z,100786.44
2018-05-31T15:55:50.716Z,100788.17
2018-05-31T15:58:19.178Z,100787.70
2018-05-31T16:00:47.538Z,100789.36
2018-05-31T16:03:16.022Z,100784.73
2018-05-31T16:05:44.882Z,100785.06
2018-05-31T16:08:14.971Z,100778.23
2018-05-31T16:10:43.411Z,100784.71
2018-05-31T16:13:11.828Z,100774.72
2018-05-31T16:15:40.158Z,100777.73
2018-05-31T16:18:09.341Z,100772.55
2018-05-31T16:20:38.441Z,100778.30
2018-05-31T16:23:08.091Z,100778.58
2018-05-31T16:25:36.531Z,100781.92
2018-05-31T16:28:04.876Z,100779.60
2018-05-31T16:30:33.239Z,100774.99
2018-05-31T16:33:01.975Z,100768.03
2018-05-31T16:35:31.978Z,100766.73
2018-05-31T16:38:02.052Z,100763.93
2018-05-31T16:40:30.389Z,100758.66
2018-05-31T16:43:01.719Z,100761.52
2018-05-31T16:45:32.774Z,100753.93
2018-05-31T16:48:02.793Z,100757.12
2018-05-31T16:50:32.228Z,100758.81
2018-05-31T16:53:02.242Z,100759.84
2018-05-31T16:55:30.645Z,100758.73
2018-05-31T16:57:59.882Z,100764.83
2018-05-31T17:51:03.472Z,100789.12
2018-05-31T17:53:32.383Z,100786.41
2018-05-31T17:56:02.496Z,100784.17
2018-05-31T17:58:30.856Z,100779.84
2018-05-31T18:00:59.928Z,100770.75
2018-05-31T18:03:29.154Z,100776.06
2018-05-31T18:05:57.533Z,100773.94
2018-05-31T18:08:26.753Z,100780.44
2018-05-31T18:10:55.138Z,100782.54
2018-05-31T18:13:23.794Z,100784.09
2018-05-31T18:15:52.187Z,100792.51
2018-05-31T18:18:20.599Z,100791.16
2018-05-31T18:20:49.047Z,100805.19
2018-05-31T18:23:18.938Z,100797.04
2018-05-31T18:25:48.565Z,100793.17
2018-05-31T18:28:17.056Z,100794.21
2018-05-31T18:30:45.429Z,100793.33
2018-05-31T18:33:13.804Z,100791.08
2018-05-31T18:35:42.180Z,100790.95
2018-05-31T18:38:10.641Z,100791.79
2018-05-31T18:40:39.980Z,100795.72
2018-05-31T18:43:08.381Z,100802.38
2018-05-31T18:45:37.691Z,100800.92
2018-05-31T18:48:06.835Z,100805.45
2018-05-31T18:50:35.254Z,100802.75
2018-05-31T18:53:03.683Z,100812.72
2018-05-31T18:55:32.902Z,100812.16
2018-05-31T18:58:01.483Z,100805.11
2018-05-31T19:00:29.965Z,100809.73
2018-05-31T19:02:58.446Z,100803.03
2018-05-31T19:05:26.967Z,100807.33
2018-05-31T19:07:59.794Z,100803.31
2018-05-31T19:10:40.588Z,100810.43
2018-05-31T19:13:18.010Z,100820.28
2018-05-31T19:15:46.359Z,100824.09
2018-05-31T19:18:20.331Z,100827.66
2018-05-31T19:20:49.683Z,100833.73
2018-05-31T19:23:18.058Z,100837.39
2018-05-31T19:25:46.399Z,100841.67
2018-05-31T19:28:14.781Z,100844.16
2018-05-31T19:30:48.569Z,100845.45
2018-05-31T19:33:17.769Z,100851.05
2018-05-31T19:35:52.555Z,100857.97
2018-05-31T19:38:20.934Z,100864.33
2018-05-31T19:40:49.326Z,100859.48
2018-05-31T19:43:23.197Z,100864.08
2018-05-31T19:45:52.075Z,100867.41
2018-05-31T19:48:20.459Z,100868.99
2018-05-31T19:50:48.826Z,100871.05
2018-05-31T19:53:23.261Z,100863.02
2018-05-31T19:55:51.638Z,100868.13
2018-05-31T19:58:25.627Z,100873.61
2018-05-31T20:00:59.645Z,100874.68
2018-05-31T20:03:37.118Z,100880.64
2018-05-31T20:06:06.318Z,100879.58
2018-05-31T20:08:35.448Z,100886.12
2018-05-31T20:11:03.840Z,100889.19
2018-05-31T20:13:32.293Z,100890.67
2018-05-31T20:16:00.707Z,100894.72
2018-05-31T20:18:29.073Z,100897.19
2018-05-31T20:24:15.970Z,100897.09
2018-05-31T20:30:12.838Z,100901.09
2018-05-31T20:32:42.875Z,100898.61
2018-05-31T20:35:14.549Z,100892.53
2018-05-31T20:37:51.962Z,100890.33
2018-05-31T20:40:21.171Z,100887.08
2018-05-31T20:42:49.527Z,100883.76
2018-05-31T20:45:18.759Z,100879.34
2018-05-31T20:47:49.446Z,100880.48
2018-05-31T20:50:18.592Z,100875.67
2018-05-31T20:52:47.779Z,100875.22
2018-05-31T20:55:16.194Z,100881.30
2018-05-31T20:57:44.573Z,100874.58
2018-05-31T21:00:12.948Z,100873.95
2018-05-31T21:02:41.499Z,100869.94
2018-05-31T21:05:09.922Z,100879.00
2018-05-31T21:07:38.954Z,100874.31
2018-05-31T21:10:07.294Z,100874.72
2018-05-31T21:12:35.729Z,100873.25
2018-05-31T21:15:04.293Z,100868.64
2018-05-31T21:17:33.804Z,100861.89
2018-05-31T21:20:02.232Z,100864.52
2018-05-31T21:22:32.623Z,100863.89
2018-05-31T21:25:01.056Z,100870.30
2018-05-31T21:27:30.209Z,100864.76
2018-05-31T21:29:59.330Z,100867.64
2018-05-31T21:32:27.747Z,100861.53
2018-05-31T21:35:00.250Z,100866.80
2018-05-31T21:37:28.615Z,100861.38
2018-05-31T21:39:56.984Z,100853.91
2018-05-31T21:42:25.369Z,100858.44
2018-05-31T21:44:53.730Z,100860.00
2018-05-31T21:47:22.103Z,100871.03
2018-05-31T21:49:50.503Z,100873.77
2018-05-31T21:52:19.883Z,100886.00
2018-05-31T21:54:49.098Z,100885.64
2018-05-31T21:57:17.493Z,100887.48
2018-05-31T21:59:46.491Z,100895.53
2018-05-31T22:02:14.898Z,100894.03
2018-05-31T22:04:44.706Z,100893.06
2018-05-31T22:07:14.615Z,100898.11
2018-05-31T22:09:43.796Z,100897.97
2018-05-31T22:12:14.490Z,100902.11
2018-05-31T22:14:43.039Z,100910.42
2018-05-31T22:17:11.480Z,100921.98
2018-05-31T22:19:39.890Z,100983.88
2018-05-31T22:22:09.102Z,100936.16
2018-05-31T22:24:38.153Z,100969.41
2018-05-31T22:27:06.522Z,100945.80
2018-05-31T22:29:34.903Z,100940.43
2018-05-31T22:32:04.074Z,100935.05
2018-05-31T22:34:32.452Z,100935.88
2018-05-31T22:37:00.789Z,100922.41
2018-05-31T22:39:30.025Z,100910.80
2018-05-31T22:41:58.494Z,100918.70
2018-05-31T22:44:27.795Z,100916.86
2018-05-31T22:46:56.147Z,100908.25
2018-05-31T22:49:25.341Z,100901.11
2018-05-31T22:51:53.928Z,100899.17
2018-05-31T22:54:24.045Z,100895.77
2018-05-31T22:56:53.181Z,100895.10
2018-05-31T22:59:21.683Z,100886.73
2018-05-31T23:01:50.028Z,100884.53
2018-05-31T23:04:18.438Z,100881.25
2018-05-31T23:06:47.779Z,100875.03
2018-05-31T23:09:17.568Z,100867.22
2018-05-31T23:11:45.930Z,100867.55
2018-05-31T23:14:14.324Z,100866.31
2018-05-31T23:16:43.440Z,100856.84
2018-05-31T23:19:12.662Z,100855.05
2018-05-31T23:21:41.025Z,100857.09
2018-05-31T23:24:10.174Z,100853.30
2018-05-31T23:26:39.680Z,100846.34
2018-05-31T23:29:08.049Z,100838.44
2018-05-31T23:31:37.467Z,100834.67
2018-05-31T23:34:05.854Z,100829.03
2018-05-31T23:36:34.234Z,100821.54
2018-05-31T23:39:02.653Z,100823.81
2018-05-31T23:41:31.891Z,100820.72
2018-05-31T23:44:00.285Z,100821.78
2018-05-31T23:46:29.479Z,100810.92
2018-05-31T23:48:58.224Z,100813.73
2018-05-31T23:51:26.587Z,100816.17
2018-05-31T23:53:55.709Z,100813.28
2018-05-31T23:56:24.146Z,100811.56
2018-05-31T23:58:53.346Z,100813.69
